sensor_id;sensor_type;location;lat;lon;timestamp;temperature;humidity
15355;DHT22;7777;52.254;9.618;2023-10-09T00:02:11;13.70;98.20
15355;DHT22;7777;52.254;9.618;2023-10-09T00:04:41;13.70;98.30
15355;DHT22;7777;52.254;9.618;2023-10-09T00:07:11;13.70;98.30
15355;DHT22;7777;52.254;9.618;2023-10-09T00:09:43;13.70;98.30
15355;DHT22;7777;52.254;9.618;2023-10-09T00:12:16;13.70;98.30
15355;DHT22;7777;52.254;9.618;2023-10-09T00:14:43;13.70;98.30
15355;DHT22;7777;52.254;9.618;2023-10-09T00:17:15;13.80;98.30
15355;DHT22;7777;52.254;9.618;2023-10-09T00:19:42;13.80;98.30
15355;DHT22;7777;52.254;9.618;2023-10-09T00:22:09;13.80;98.30
15355;DHT22;7777;52.254;9.618;2023-10-09T00:24:55;13.80;98.40
15355;DHT22;7777;52.254;9.618;2023-10-09T00:27:38;13.80;98.30
15355;DHT22;7777;52.254;9.618;2023-10-09T00:30:13;13.80;98.40
15355;DHT22;7777;52.254;9.618;2023-10-09T00:32:43;13.80;98.40
15355;DHT22;7777;52.254;9.618;2023-10-09T00:35:27;13.80;98.40
15355;DHT22;7777;52.254;9.618;2023-10-09T00:38:05;13.80;98.40
15355;DHT22;7777;52.254;9.618;2023-10-09T00:40:40;13.80;98.40
15355;DHT22;7777;52.254;9.618;2023-10-09T00:43:18;13.80;98.40
15355;DHT22;7777;52.254;9.618;2023-10-09T00:45:46;13.80;98.40
15355;DHT22;7777;52.254;9.618;2023-10-09T00:48:16;13.80;98.40
15355;DHT22;7777;52.254;9.618;2023-10-09T00:50:55;13.80;98.40
15355;DHT22;7777;52.254;9.618;2023-10-09T00:53:25;13.80;98.40
15355;DHT22;7777;52.254;9.618;2023-10-09T00:56:03;13.90;98.50
15355;DHT22;7777;52.254;9.618;2023-10-09T00:58:44;13.90;98.50
15355;DHT22;7777;52.254;9.618;2023-10-09T01:01:17;13.90;98.50
15355;DHT22;7777;52.254;9.618;2023-10-09T01:03:43;13.90;98.50
15355;DHT22;7777;52.254;9.618;2023-10-09T01:06:16;13.90;98.50
15355;DHT22;7777;52.254;9.618;2023-10-09T01:08:42;13.90;98.60
15355;DHT22;7777;52.254;9.618;2023-10-09T01:11:15;13.90;98.50
15355;DHT22;7777;52.254;9.618;2023-10-09T01:13:48;14.00;98.60
15355;DHT22;7777;52.254;9.618;2023-10-09T01:16:22;14.00;98.60
15355;DHT22;7777;52.254;9.618;2023-10-09T01:18:50;14.00;98.60
15355;DHT22;7777;52.254;9.618;2023-10-09T01:21:18;14.00;98.70
15355;DHT22;7777;52.254;9.618;2023-10-09T01:23:48;14.00;98.70
15355;DHT22;7777;52.254;9.618;2023-10-09T01:26:40;14.00;98.70
15355;DHT22;7777;52.254;9.618;2023-10-09T01:29:13;14.10;98.80
15355;DHT22;7777;52.254;9.618;2023-10-09T01:31:54;14.10;98.70
15355;DHT22;7777;52.254;9.618;2023-10-09T01:34:33;14.10;98.80
15355;DHT22;7777;52.254;9.618;2023-10-09T01:37:11;14.10;98.80
15355;DHT22;7777;52.254;9.618;2023-10-09T01:39:45;14.20;98.80
15355;DHT22;7777;52.254;9.618;2023-10-09T01:42:11;14.10;98.80
15355;DHT22;7777;52.254;9.618;2023-10-09T01:44:48;14.20;98.90
15355;DHT22;7777;52.254;9.618;2023-10-09T01:47:14;14.20;98.90
15355;DHT22;7777;52.254;9.618;2023-10-09T01:49:44;14.20;98.90
15355;DHT22;7777;52.254;9.618;2023-10-09T01:52:15;14.20;98.90
15355;DHT22;7777;52.254;9.618;2023-10-09T01:54:42;14.30;98.90
15355;DHT22;7777;52.254;9.618;2023-10-09T01:57:16;14.20;99.00
15355;DHT22;7777;52.254;9.618;2023-10-09T01:59:49;14.30;99.00
15355;DHT22;7777;52.254;9.618;2023-10-09T02:02:19;14.30;99.00
15355;DHT22;7777;52.254;9.618;2023-10-09T02:04:55;14.30;99.10
15355;DHT22;7777;52.254;9.618;2023-10-09T02:07:44;14.30;99.10
15355;DHT22;7777;52.254;9.618;2023-10-09T02:10:11;14.30;99.20
15355;DHT22;7777;52.254;9.618;2023-10-09T02:12:51;14.30;99.10
15355;DHT22;7777;52.254;9.618;2023-10-09T02:15:28;14.30;99.50
15355;DHT22;7777;52.254;9.618;2023-10-09T02:18:18;14.30;99.20
15355;DHT22;7777;52.254;9.618;2023-10-09T02:21:08;14.30;99.20
15355;DHT22;7777;52.254;9.618;2023-10-09T02:23:34;14.30;99.30
15355;DHT22;7777;52.254;9.618;2023-10-09T02:26:08;14.30;99.30
15355;DHT22;7777;52.254;9.618;2023-10-09T02:28:44;14.40;99.40
15355;DHT22;7777;52.254;9.618;2023-10-09T02:31:18;14.40;99.40
15355;DHT22;7777;52.254;9.618;2023-10-09T02:33:47;14.40;99.40
15355;DHT22;7777;52.254;9.618;2023-10-09T02:36:15;14.40;99.70
15355;DHT22;7777;52.254;9.618;2023-10-09T02:38:41;14.40;99.50
15355;DHT22;7777;52.254;9.618;2023-10-09T02:41:08;14.40;99.60
15355;DHT22;7777;52.254;9.618;2023-10-09T02:43:38;14.40;99.50
15355;DHT22;7777;52.254;9.618;2023-10-09T02:46:16;14.40;99.50
15355;DHT22;7777;52.254;9.618;2023-10-09T02:48:49;14.40;99.50
15355;DHT22;7777;52.254;9.618;2023-10-09T02:51:25;14.40;99.50
15355;DHT22;7777;52.254;9.618;2023-10-09T02:53:56;14.40;99.50
15355;DHT22;7777;52.254;9.618;2023-10-09T02:56:24;14.40;99.60
15355;DHT22;7777;52.254;9.618;2023-10-09T02:59:01;14.40;99.60
15355;DHT22;7777;52.254;9.618;2023-10-09T03:01:31;14.50;99.60
15355;DHT22;7777;52.254;9.618;2023-10-09T03:03:59;14.50;99.60
15355;DHT22;7777;52.254;9.618;2023-10-09T03:06:28;14.50;99.60
15355;DHT22;7777;52.254;9.618;2023-10-09T03:08:57;14.50;99.60
15355;DHT22;7777;52.254;9.618;2023-10-09T03:11:22;14.50;99.60
15355;DHT22;7777;52.254;9.618;2023-10-09T03:13:50;14.50;99.70
15355;DHT22;7777;52.254;9.618;2023-10-09T03:16:18;14.50;99.70
15355;DHT22;7777;52.254;9.618;2023-10-09T03:18:49;14.50;99.70
15355;DHT22;7777;52.254;9.618;2023-10-09T03:21:16;14.50;99.90
15355;DHT22;7777;52.254;9.618;2023-10-09T03:23:45;14.50;99.80
15355;DHT22;7777;52.254;9.618;2023-10-09T03:26:16;14.60;99.90
15355;DHT22;7777;52.254;9.618;2023-10-09T03:28:46;14.60;99.90
15355;DHT22;7777;52.254;9.618;2023-10-09T03:31:13;14.50;99.80
15355;DHT22;7777;52.254;9.618;2023-10-09T03:33:40;14.60;99.90
15355;DHT22;7777;52.254;9.618;2023-10-09T03:36:06;14.60;99.90
15355;DHT22;7777;52.254;9.618;2023-10-09T03:38:38;14.60;99.90
15355;DHT22;7777;52.254;9.618;2023-10-09T03:41:07;14.60;99.90
15355;DHT22;7777;52.254;9.618;2023-10-09T03:43:36;14.60;99.90
15355;DHT22;7777;52.254;9.618;2023-10-09T03:46:09;14.60;99.90
15355;DHT22;7777;52.254;9.618;2023-10-09T03:48:51;14.60;99.90
15355;DHT22;7777;52.254;9.618;2023-10-09T03:51:21;14.60;99.90
15355;DHT22;7777;52.254;9.618;2023-10-09T03:53:49;14.60;99.90
15355;DHT22;7777;52.254;9.618;2023-10-09T03:56:16;14.60;99.90
15355;DHT22;7777;52.254;9.618;2023-10-09T03:58:52;14.70;99.90
15355;DHT22;7777;52.254;9.618;2023-10-09T04:01:19;14.70;99.90
15355;DHT22;7777;52.254;9.618;2023-10-09T04:03:57;14.70;99.90
15355;DHT22;7777;52.254;9.618;2023-10-09T04:06:29;14.70;99.90
15355;DHT22;7777;52.254;9.618;2023-10-09T04:09:00;14.70;99.90
15355;DHT22;7777;52.254;9.618;2023-10-09T04:11:39;14.80;99.90
15355;DHT22;7777;52.254;9.618;2023-10-09T04:14:09;14.80;99.90
15355;DHT22;7777;52.254;9.618;2023-10-09T04:16:47;14.80;99.90
15355;DHT22;7777;52.254;9.618;2023-10-09T04:19:51;14.80;99.90
15355;DHT22;7777;52.254;9.618;2023-10-09T04:22:37;14.80;99.90
15355;DHT22;7777;52.254;9.618;2023-10-09T04:25:11;14.80;99.90
15355;DHT22;7777;52.254;9.618;2023-10-09T04:27:43;14.80;99.90
15355;DHT22;7777;52.254;9.618;2023-10-09T04:30:10;14.90;99.90
15355;DHT22;7777;52.254;9.618;2023-10-09T04:32:41;14.90;99.90
15355;DHT22;7777;52.254;9.618;2023-10-09T04:35:11;14.90;99.90
15355;DHT22;7777;52.254;9.618;2023-10-09T04:37:52;14.90;99.90
15355;DHT22;7777;52.254;9.618;2023-10-09T04:40:25;14.90;99.90
15355;DHT22;7777;52.254;9.618;2023-10-09T04:43:07;15.00;99.90
15355;DHT22;7777;52.254;9.618;2023-10-09T04:45:48;15.00;99.90
15355;DHT22;7777;52.254;9.618;2023-10-09T04:48:34;15.00;99.90
15355;DHT22;7777;52.254;9.618;2023-10-09T04:51:07;15.00;99.90
15355;DHT22;7777;52.254;9.618;2023-10-09T04:53:48;15.00;99.90
15355;DHT22;7777;52.254;9.618;2023-10-09T04:56:41;15.00;99.90
15355;DHT22;7777;52.254;9.618;2023-10-09T04:59:26;15.00;99.90
15355;DHT22;7777;52.254;9.618;2023-10-09T05:01:52;15.00;99.90
15355;DHT22;7777;52.254;9.618;2023-10-09T05:04:25;15.00;99.90
15355;DHT22;7777;52.254;9.618;2023-10-09T05:07:20;15.00;99.90
15355;DHT22;7777;52.254;9.618;2023-10-09T05:09:50;15.10;99.90
15355;DHT22;7777;52.254;9.618;2023-10-09T05:12:22;15.10;99.90
15355;DHT22;7777;52.254;9.618;2023-10-09T05:14:52;15.10;99.90
15355;DHT22;7777;52.254;9.618;2023-10-09T05:17:33;15.10;99.90
15355;DHT22;7777;52.254;9.618;2023-10-09T05:20:02;15.10;99.90
15355;DHT22;7777;52.254;9.618;2023-10-09T05:22:46;15.10;99.90
15355;DHT22;7777;52.254;9.618;2023-10-09T05:25:23;15.10;99.90
15355;DHT22;7777;52.254;9.618;2023-10-09T05:28:09;15.10;99.90
15355;DHT22;7777;52.254;9.618;2023-10-09T05:31:07;15.10;99.90
15355;DHT22;7777;52.254;9.618;2023-10-09T05:33:37;15.10;99.90
15355;DHT22;7777;52.254;9.618;2023-10-09T05:36:05;15.10;99.90
15355;DHT22;7777;52.254;9.618;2023-10-09T05:38:51;15.10;99.90
15355;DHT22;7777;52.254;9.618;2023-10-09T05:41:35;15.20;99.90
15355;DHT22;7777;52.254;9.618;2023-10-09T05:44:16;15.20;99.90
15355;DHT22;7777;52.254;9.618;2023-10-09T05:47:01;15.20;99.90
15355;DHT22;7777;52.254;9.618;2023-10-09T05:49:45;15.20;99.90
15355;DHT22;7777;52.254;9.618;2023-10-09T05:52:12;15.20;99.90
15355;DHT22;7777;52.254;9.618;2023-10-09T05:54:57;15.20;99.90
15355;DHT22;7777;52.254;9.618;2023-10-09T05:57:41;15.20;99.90
15355;DHT22;7777;52.254;9.618;2023-10-09T06:00:19;15.20;99.90
15355;DHT22;7777;52.254;9.618;2023-10-09T06:03:03;15.20;99.90
15355;DHT22;7777;52.254;9.618;2023-10-09T06:05:44;15.20;99.90
15355;DHT22;7777;52.254;9.618;2023-10-09T06:08:27;15.20;99.90
15355;DHT22;7777;52.254;9.618;2023-10-09T06:11:10;15.20;99.90
15355;DHT22;7777;52.254;9.618;2023-10-09T06:13:55;15.20;99.90
15355;DHT22;7777;52.254;9.618;2023-10-09T06:16:37;15.20;99.90
15355;DHT22;7777;52.254;9.618;2023-10-09T06:19:13;15.20;99.90
15355;DHT22;7777;52.254;9.618;2023-10-09T06:21:46;15.20;99.90
15355;DHT22;7777;52.254;9.618;2023-10-09T06:24:24;15.20;99.90
15355;DHT22;7777;52.254;9.618;2023-10-09T06:26:51;15.20;99.90
15355;DHT22;7777;52.254;9.618;2023-10-09T06:29:26;15.20;99.90
15355;DHT22;7777;52.254;9.618;2023-10-09T06:32:11;15.20;99.90
15355;DHT22;7777;52.254;9.618;2023-10-09T06:34:47;15.20;99.90
15355;DHT22;7777;52.254;9.618;2023-10-09T06:37:18;15.20;99.90
15355;DHT22;7777;52.254;9.618;2023-10-09T06:39:55;15.20;99.90
15355;DHT22;7777;52.254;9.618;2023-10-09T06:42:30;15.20;99.90
15355;DHT22;7777;52.254;9.618;2023-10-09T06:45:07;15.20;99.90
15355;DHT22;7777;52.254;9.618;2023-10-09T06:47:38;15.30;99.90
15355;DHT22;7777;52.254;9.618;2023-10-09T06:50:08;15.20;99.90
15355;DHT22;7777;52.254;9.618;2023-10-09T06:52:49;15.20;99.90
15355;DHT22;7777;52.254;9.618;2023-10-09T06:55:38;15.30;99.90
15355;DHT22;7777;52.254;9.618;2023-10-09T06:58:21;15.30;99.90
15355;DHT22;7777;52.254;9.618;2023-10-09T07:01:10;15.30;99.90
15355;DHT22;7777;52.254;9.618;2023-10-09T07:03:57;15.30;99.90
15355;DHT22;7777;52.254;9.618;2023-10-09T07:06:36;15.30;99.90
15355;DHT22;7777;52.254;9.618;2023-10-09T07:09:02;15.30;99.90
15355;DHT22;7777;52.254;9.618;2023-10-09T07:11:38;15.30;99.90
15355;DHT22;7777;52.254;9.618;2023-10-09T07:14:23;15.30;99.90
15355;DHT22;7777;52.254;9.618;2023-10-09T07:17:04;15.30;99.90
15355;DHT22;7777;52.254;9.618;2023-10-09T07:19:42;15.30;99.90
15355;DHT22;7777;52.254;9.618;2023-10-09T07:22:09;15.30;99.90
15355;DHT22;7777;52.254;9.618;2023-10-09T07:24:53;15.40;99.90
15355;DHT22;7777;52.254;9.618;2023-10-09T07:27:26;15.40;99.90
15355;DHT22;7777;52.254;9.618;2023-10-09T07:30:13;15.40;99.90
15355;DHT22;7777;52.254;9.618;2023-10-09T07:33:07;15.40;99.90
15355;DHT22;7777;52.254;9.618;2023-10-09T07:35:33;15.40;99.90
15355;DHT22;7777;52.254;9.618;2023-10-09T07:38:09;15.40;99.90
15355;DHT22;7777;52.254;9.618;2023-10-09T07:40:37;15.40;99.90
15355;DHT22;7777;52.254;9.618;2023-10-09T07:43:27;15.40;99.90
15355;DHT22;7777;52.254;9.618;2023-10-09T07:46:18;15.40;99.90
15355;DHT22;7777;52.254;9.618;2023-10-09T07:49:00;15.50;99.90
15355;DHT22;7777;52.254;9.618;2023-10-09T07:51:36;15.50;99.90
15355;DHT22;7777;52.254;9.618;2023-10-09T07:54:03;15.50;99.90
15355;DHT22;7777;52.254;9.618;2023-10-09T07:56:36;15.50;99.90
15355;DHT22;7777;52.254;9.618;2023-10-09T07:59:12;15.50;99.90
15355;DHT22;7777;52.254;9.618;2023-10-09T08:01:46;15.50;99.90
15355;DHT22;7777;52.254;9.618;2023-10-09T08:04:20;15.50;99.90
15355;DHT22;7777;52.254;9.618;2023-10-09T08:07:12;15.50;99.90
15355;DHT22;7777;52.254;9.618;2023-10-09T08:10:05;15.50;99.90
15355;DHT22;7777;52.254;9.618;2023-10-09T08:12:45;15.50;99.90
15355;DHT22;7777;52.254;9.618;2023-10-09T08:15:24;15.60;99.90
15355;DHT22;7777;52.254;9.618;2023-10-09T08:18:16;15.60;99.90
15355;DHT22;7777;52.254;9.618;2023-10-09T08:20:53;15.60;99.90
15355;DHT22;7777;52.254;9.618;2023-10-09T08:23:23;15.60;99.90
15355;DHT22;7777;52.254;9.618;2023-10-09T08:26:09;15.60;99.90
15355;DHT22;7777;52.254;9.618;2023-10-09T08:28:41;15.60;99.90
15355;DHT22;7777;52.254;9.618;2023-10-09T08:31:15;15.60;99.90
15355;DHT22;7777;52.254;9.618;2023-10-09T08:33:48;15.70;99.90
15355;DHT22;7777;52.254;9.618;2023-10-09T08:36:27;15.70;99.90
15355;DHT22;7777;52.254;9.618;2023-10-09T08:38:55;15.70;99.90
15355;DHT22;7777;52.254;9.618;2023-10-09T08:41:24;15.70;99.90
15355;DHT22;7777;52.254;9.618;2023-10-09T08:43:57;15.70;99.90
15355;DHT22;7777;52.254;9.618;2023-10-09T08:46:27;15.70;99.90
15355;DHT22;7777;52.254;9.618;2023-10-09T08:48:58;15.70;99.90
15355;DHT22;7777;52.254;9.618;2023-10-09T08:51:25;15.80;99.90
15355;DHT22;7777;52.254;9.618;2023-10-09T08:53:52;15.80;99.90
15355;DHT22;7777;52.254;9.618;2023-10-09T08:56:19;15.80;99.90
15355;DHT22;7777;52.254;9.618;2023-10-09T08:58:50;15.90;99.90
15355;DHT22;7777;52.254;9.618;2023-10-09T09:01:27;15.90;99.90
15355;DHT22;7777;52.254;9.618;2023-10-09T09:03:57;15.90;99.90
15355;DHT22;7777;52.254;9.618;2023-10-09T09:06:23;15.90;99.90
15355;DHT22;7777;52.254;9.618;2023-10-09T09:08:50;16.00;99.90
15355;DHT22;7777;52.254;9.618;2023-10-09T09:11:20;16.00;99.90
15355;DHT22;7777;52.254;9.618;2023-10-09T09:16:23;16.00;99.90
15355;DHT22;7777;52.254;9.618;2023-10-09T09:19:06;16.00;99.90
15355;DHT22;7777;52.254;9.618;2023-10-09T09:21:42;16.00;99.90
15355;DHT22;7777;52.254;9.618;2023-10-09T09:24:11;16.00;99.90
15355;DHT22;7777;52.254;9.618;2023-10-09T09:26:40;16.10;99.90
15355;DHT22;7777;52.254;9.618;2023-10-09T09:29:13;16.10;99.90
15355;DHT22;7777;52.254;9.618;2023-10-09T09:31:56;16.10;99.90
15355;DHT22;7777;52.254;9.618;2023-10-09T09:34:46;16.10;99.90
15355;DHT22;7777;52.254;9.618;2023-10-09T09:37:25;16.10;99.90
15355;DHT22;7777;52.254;9.618;2023-10-09T09:39:57;16.20;99.90
15355;DHT22;7777;52.254;9.618;2023-10-09T09:42:23;16.20;99.90
15355;DHT22;7777;52.254;9.618;2023-10-09T09:44:51;16.20;99.90
15355;DHT22;7777;52.254;9.618;2023-10-09T09:47:18;16.20;99.90
15355;DHT22;7777;52.254;9.618;2023-10-09T09:49:54;16.30;99.90
15355;DHT22;7777;52.254;9.618;2023-10-09T09:52:29;16.30;99.90
15355;DHT22;7777;52.254;9.618;2023-10-09T09:55:12;16.30;99.90
15355;DHT22;7777;52.254;9.618;2023-10-09T09:57:50;16.30;99.90
15355;DHT22;7777;52.254;9.618;2023-10-09T10:00:19;16.30;99.90
15355;DHT22;7777;52.254;9.618;2023-10-09T10:03:34;16.30;99.90
15355;DHT22;7777;52.254;9.618;2023-10-09T10:06:00;16.30;99.90
15355;DHT22;7777;52.254;9.618;2023-10-09T10:08:31;16.30;99.90
15355;DHT22;7777;52.254;9.618;2023-10-09T10:10:58;16.30;99.90
15355;DHT22;7777;52.254;9.618;2023-10-09T10:16:12;16.30;99.90
15355;DHT22;7777;52.254;9.618;2023-10-09T10:19:05;16.40;99.90
15355;DHT22;7777;52.254;9.618;2023-10-09T10:21:43;16.40;99.90
15355;DHT22;7777;52.254;9.618;2023-10-09T10:27:14;16.40;99.90
15355;DHT22;7777;52.254;9.618;2023-10-09T10:32:56;16.40;99.90
15355;DHT22;7777;52.254;9.618;2023-10-09T10:35:38;16.40;99.90
15355;DHT22;7777;52.254;9.618;2023-10-09T10:38:26;16.50;99.90
15355;DHT22;7777;52.254;9.618;2023-10-09T10:41:18;16.50;99.90
15355;DHT22;7777;52.254;9.618;2023-10-09T10:43:48;16.50;99.90
15355;DHT22;7777;52.254;9.618;2023-10-09T10:46:16;16.50;99.90
15355;DHT22;7777;52.254;9.618;2023-10-09T10:48:56;16.50;99.90
15355;DHT22;7777;52.254;9.618;2023-10-09T10:51:26;16.50;99.90
15355;DHT22;7777;52.254;9.618;2023-10-09T10:54:01;16.50;99.90
15355;DHT22;7777;52.254;9.618;2023-10-09T10:56:46;16.50;99.90
15355;DHT22;7777;52.254;9.618;2023-10-09T10:59:13;16.50;99.90
15355;DHT22;7777;52.254;9.618;2023-10-09T11:01:39;16.50;99.90
15355;DHT22;7777;52.254;9.618;2023-10-09T11:04:39;16.50;99.90
15355;DHT22;7777;52.254;9.618;2023-10-09T11:07:07;16.50;99.90
15355;DHT22;7777;52.254;9.618;2023-10-09T11:09:57;16.50;99.90
15355;DHT22;7777;52.254;9.618;2023-10-09T11:12:51;16.50;99.90
15355;DHT22;7777;52.254;9.618;2023-10-09T11:15:37;16.50;99.90
15355;DHT22;7777;52.254;9.618;2023-10-09T11:18:14;16.50;99.90
15355;DHT22;7777;52.254;9.618;2023-10-09T11:20:51;16.50;99.90
15355;DHT22;7777;52.254;9.618;2023-10-09T11:23:27;16.50;99.90
15355;DHT22;7777;52.254;9.618;2023-10-09T11:26:01;16.50;99.90
15355;DHT22;7777;52.254;9.618;2023-10-09T11:28:46;16.50;99.90
15355;DHT22;7777;52.254;9.618;2023-10-09T11:31:39;16.50;99.90
15355;DHT22;7777;52.254;9.618;2023-10-09T11:34:18;16.50;99.90
15355;DHT22;7777;52.254;9.618;2023-10-09T11:36:55;16.50;99.90
15355;DHT22;7777;52.254;9.618;2023-10-09T11:39:31;16.50;99.90
15355;DHT22;7777;52.254;9.618;2023-10-09T11:42:05;16.50;99.90
15355;DHT22;7777;52.254;9.618;2023-10-09T11:44:42;16.60;99.90
15355;DHT22;7777;52.254;9.618;2023-10-09T11:47:11;16.60;99.90
15355;DHT22;7777;52.254;9.618;2023-10-09T11:49:55;16.60;99.90
15355;DHT22;7777;52.254;9.618;2023-10-09T11:52:24;16.60;99.90
15355;DHT22;7777;52.254;9.618;2023-10-09T11:55:23;16.60;99.90
15355;DHT22;7777;52.254;9.618;2023-10-09T11:57:51;16.60;99.90
15355;DHT22;7777;52.254;9.618;2023-10-09T12:00:17;16.60;99.90
15355;DHT22;7777;52.254;9.618;2023-10-09T12:02:56;16.60;99.90
15355;DHT22;7777;52.254;9.618;2023-10-09T12:05:22;16.60;99.90
15355;DHT22;7777;52.254;9.618;2023-10-09T12:07:49;16.70;99.90
15355;DHT22;7777;52.254;9.618;2023-10-09T12:10:23;16.70;99.90
15355;DHT22;7777;52.254;9.618;2023-10-09T12:12:52;16.70;99.90
15355;DHT22;7777;52.254;9.618;2023-10-09T12:15:19;16.70;99.90
15355;DHT22;7777;52.254;9.618;2023-10-09T12:17:46;16.70;99.90
15355;DHT22;7777;52.254;9.618;2023-10-09T12:20:16;16.70;99.90
15355;DHT22;7777;52.254;9.618;2023-10-09T12:23:01;16.70;99.90
15355;DHT22;7777;52.254;9.618;2023-10-09T12:25:31;16.70;99.90
15355;DHT22;7777;52.254;9.618;2023-10-09T12:27:58;16.70;99.90
15355;DHT22;7777;52.254;9.618;2023-10-09T12:30:26;16.70;99.90
15355;DHT22;7777;52.254;9.618;2023-10-09T12:32:54;16.70;99.90
15355;DHT22;7777;52.254;9.618;2023-10-09T12:35:20;16.80;99.90
15355;DHT22;7777;52.254;9.618;2023-10-09T12:37:47;16.70;99.90
15355;DHT22;7777;52.254;9.618;2023-10-09T12:40:12;16.80;99.90
15355;DHT22;7777;52.254;9.618;2023-10-09T12:42:40;16.80;99.90
15355;DHT22;7777;52.254;9.618;2023-10-09T12:45:06;16.80;99.90
15355;DHT22;7777;52.254;9.618;2023-10-09T12:47:35;16.80;99.90
15355;DHT22;7777;52.254;9.618;2023-10-09T12:50:04;16.80;99.90
15355;DHT22;7777;52.254;9.618;2023-10-09T12:52:35;16.80;99.90
15355;DHT22;7777;52.254;9.618;2023-10-09T12:55:03;16.80;99.90
15355;DHT22;7777;52.254;9.618;2023-10-09T12:57:36;16.80;99.90
15355;DHT22;7777;52.254;9.618;2023-10-09T13:00:03;16.80;99.90
15355;DHT22;7777;52.254;9.618;2023-10-09T13:02:36;16.90;99.90
15355;DHT22;7777;52.254;9.618;2023-10-09T13:05:02;16.90;99.90
15355;DHT22;7777;52.254;9.618;2023-10-09T13:07:30;16.90;99.90
15355;DHT22;7777;52.254;9.618;2023-10-09T13:09:56;16.90;99.90
15355;DHT22;7777;52.254;9.618;2023-10-09T13:12:34;16.90;99.90
15355;DHT22;7777;52.254;9.618;2023-10-09T13:15:10;16.90;99.90
15355;DHT22;7777;52.254;9.618;2023-10-09T13:17:39;16.90;99.90
15355;DHT22;7777;52.254;9.618;2023-10-09T13:20:06;16.90;99.90
15355;DHT22;7777;52.254;9.618;2023-10-09T13:22:40;16.90;99.90
15355;DHT22;7777;52.254;9.618;2023-10-09T13:25:10;17.00;99.90
15355;DHT22;7777;52.254;9.618;2023-10-09T13:27:45;17.00;99.90
15355;DHT22;7777;52.254;9.618;2023-10-09T13:30:18;17.00;99.90
15355;DHT22;7777;52.254;9.618;2023-10-09T13:32:50;17.00;99.90
15355;DHT22;7777;52.254;9.618;2023-10-09T13:35:19;17.00;99.90
15355;DHT22;7777;52.254;9.618;2023-10-09T13:37:45;17.00;99.90
15355;DHT22;7777;52.254;9.618;2023-10-09T13:40:20;17.00;99.90
15355;DHT22;7777;52.254;9.618;2023-10-09T13:42:55;17.10;99.90
15355;DHT22;7777;52.254;9.618;2023-10-09T13:45:30;17.00;99.90
15355;DHT22;7777;52.254;9.618;2023-10-09T13:47:59;17.10;99.90
15355;DHT22;7777;52.254;9.618;2023-10-09T13:50:28;17.10;99.90
15355;DHT22;7777;52.254;9.618;2023-10-09T13:52:57;17.10;99.90
15355;DHT22;7777;52.254;9.618;2023-10-09T13:55:23;17.20;99.90
15355;DHT22;7777;52.254;9.618;2023-10-09T13:57:57;17.20;99.90
15355;DHT22;7777;52.254;9.618;2023-10-09T14:00:24;17.20;99.90
15355;DHT22;7777;52.254;9.618;2023-10-09T14:03:00;17.20;99.90
15355;DHT22;7777;52.254;9.618;2023-10-09T14:05:37;17.20;99.90
15355;DHT22;7777;52.254;9.618;2023-10-09T14:08:09;17.30;99.90
15355;DHT22;7777;52.254;9.618;2023-10-09T14:10:37;17.30;99.90
15355;DHT22;7777;52.254;9.618;2023-10-09T14:13:04;17.30;99.90
15355;DHT22;7777;52.254;9.618;2023-10-09T14:15:37;17.30;99.90
15355;DHT22;7777;52.254;9.618;2023-10-09T14:18:06;17.30;99.90
15355;DHT22;7777;52.254;9.618;2023-10-09T14:20:38;17.40;99.90
15355;DHT22;7777;52.254;9.618;2023-10-09T14:23:07;17.40;99.90
15355;DHT22;7777;52.254;9.618;2023-10-09T14:25:34;17.40;99.90
15355;DHT22;7777;52.254;9.618;2023-10-09T14:28:08;17.40;99.90
15355;DHT22;7777;52.254;9.618;2023-10-09T14:30:35;17.40;99.90
15355;DHT22;7777;52.254;9.618;2023-10-09T14:33:10;17.40;99.90
15355;DHT22;7777;52.254;9.618;2023-10-09T14:35:44;17.50;99.90
15355;DHT22;7777;52.254;9.618;2023-10-09T14:38:11;17.40;99.90
15355;DHT22;7777;52.254;9.618;2023-10-09T14:40:43;17.50;99.90
15355;DHT22;7777;52.254;9.618;2023-10-09T14:43:12;17.50;99.90
15355;DHT22;7777;52.254;9.618;2023-10-09T14:45:48;17.50;99.90
15355;DHT22;7777;52.254;9.618;2023-10-09T14:48:17;17.50;99.90
15355;DHT22;7777;52.254;9.618;2023-10-09T14:50:50;17.50;99.90
15355;DHT22;7777;52.254;9.618;2023-10-09T14:53:22;17.50;99.90
15355;DHT22;7777;52.254;9.618;2023-10-09T14:55:58;17.50;99.90
15355;DHT22;7777;52.254;9.618;2023-10-09T14:58:28;17.50;99.90
15355;DHT22;7777;52.254;9.618;2023-10-09T15:00:56;17.50;99.90
15355;DHT22;7777;52.254;9.618;2023-10-09T15:03:22;17.50;99.90
15355;DHT22;7777;52.254;9.618;2023-10-09T15:05:49;17.60;99.90
15355;DHT22;7777;52.254;9.618;2023-10-09T15:08:15;17.50;99.90
15355;DHT22;7777;52.254;9.618;2023-10-09T15:10:48;17.50;99.90
15355;DHT22;7777;52.254;9.618;2023-10-09T15:13:19;17.50;99.90
15355;DHT22;7777;52.254;9.618;2023-10-09T15:15:45;17.50;99.90
15355;DHT22;7777;52.254;9.618;2023-10-09T15:18:16;17.50;99.90
15355;DHT22;7777;52.254;9.618;2023-10-09T15:20:44;17.60;99.90
15355;DHT22;7777;52.254;9.618;2023-10-09T15:23:10;17.50;99.90
15355;DHT22;7777;52.254;9.618;2023-10-09T15:25:36;17.50;99.90
15355;DHT22;7777;52.254;9.618;2023-10-09T15:28:07;17.50;99.90
15355;DHT22;7777;52.254;9.618;2023-10-09T15:30:35;17.50;99.90
15355;DHT22;7777;52.254;9.618;2023-10-09T15:33:06;17.50;99.90
15355;DHT22;7777;52.254;9.618;2023-10-09T15:35:33;17.50;99.90
15355;DHT22;7777;52.254;9.618;2023-10-09T15:38:01;17.50;99.90
15355;DHT22;7777;52.254;9.618;2023-10-09T15:40:32;17.50;99.90
15355;DHT22;7777;52.254;9.618;2023-10-09T15:43:03;17.50;99.90
15355;DHT22;7777;52.254;9.618;2023-10-09T15:45:30;17.50;99.90
15355;DHT22;7777;52.254;9.618;2023-10-09T15:47:57;17.50;99.90
15355;DHT22;7777;52.254;9.618;2023-10-09T15:50:29;17.50;99.90
15355;DHT22;7777;52.254;9.618;2023-10-09T15:52:59;17.50;99.90
15355;DHT22;7777;52.254;9.618;2023-10-09T15:55:27;17.50;99.90
15355;DHT22;7777;52.254;9.618;2023-10-09T15:57:53;17.50;99.90
15355;DHT22;7777;52.254;9.618;2023-10-09T16:00:24;17.50;99.90
15355;DHT22;7777;52.254;9.618;2023-10-09T16:02:56;17.50;99.90
15355;DHT22;7777;52.254;9.618;2023-10-09T16:05:23;17.50;99.90
15355;DHT22;7777;52.254;9.618;2023-10-09T16:07:52;17.50;99.90
15355;DHT22;7777;52.254;9.618;2023-10-09T16:10:20;17.50;99.90
15355;DHT22;7777;52.254;9.618;2023-10-09T16:12:47;17.50;99.90
15355;DHT22;7777;52.254;9.618;2023-10-09T16:15:13;17.50;99.90
15355;DHT22;7777;52.254;9.618;2023-10-09T16:17:45;17.50;99.90
15355;DHT22;7777;52.254;9.618;2023-10-09T16:20:13;17.50;99.90
15355;DHT22;7777;52.254;9.618;2023-10-09T16:22:48;17.50;99.90
15355;DHT22;7777;52.254;9.618;2023-10-09T16:25:14;17.50;99.90
15355;DHT22;7777;52.254;9.618;2023-10-09T16:27:43;17.50;99.90
15355;DHT22;7777;52.254;9.618;2023-10-09T16:30:15;17.50;99.90
15355;DHT22;7777;52.254;9.618;2023-10-09T16:32:44;17.50;99.90
15355;DHT22;7777;52.254;9.618;2023-10-09T16:35:11;17.50;99.90
15355;DHT22;7777;52.254;9.618;2023-10-09T16:37:37;17.50;99.90
15355;DHT22;7777;52.254;9.618;2023-10-09T16:40:03;17.50;99.90